Marten — 5BNU3 — position and weather

sailwx.info

Track history (hours):
 
Tides and Currents Weather Stations Pressure Air Temp Water Temp Dewpoint Dewpoint Depression Visibility Wind Speed Wind Dir Waves Ship Positions

Marten

Last reported at 2017-Feb-23 04:28 UTC. Time now 2017-Feb-27 00:00 UTC.
Position N 53°44' W 005°58'.

Length 90 m; draft 5.6 m.

Type: Ship. MMSI: 212376000.

Date/timePositionNaut miles runAvg speedWind from/ knotsBaromVisibWave heightAir tempDewpointWater temp
2017-Feb-23 04:28N 53°44' W 005°58'9 7.0
2017-Feb-23 03:12N 53°52' W 005°54'5 7.5
2017-Feb-23 02:31N 53°57' W 005°50'7 7.6
2017-Feb-23 01:33N 54°03' W 005°43'8 7.8
2017-Feb-23 00:33N 54°09' W 005°36'8 7.9
2017-Feb-22 23:33N 54°16' W 005°29'8 7.7
2017-Feb-22 22:33N 54°23' W 005°23'8 7.7
2017-Feb-22 21:33N 54°31' W 005°23'8 7.9
2017-Feb-22 20:33N 54°38' W 005°26'7 7.0
2017-Feb-22 19:33N 54°43' W 005°35'8 8.0
2017-Feb-22 18:33N 54°41' W 005°49'5 0.3
2017-Feb-22 03:30N 54°37' W 005°53'6 6.4
2017-Feb-22 02:33N 54°42' W 005°47'1110.6
2017-Feb-22 01:34N 54°43' W 005°28'1111.3
2017-Feb-22 00:33N 54°32' W 005°22'1111.3
2017-Feb-21 23:33N 54°21' W 005°20'1111.5
2017-Feb-21 22:33N 54°11' W 005°32'1211.4
2017-Feb-21 21:32N 54°02' W 005°44'1211.4
2017-Feb-21 20:30N 53°53' W 005°57'1111.5
2017-Feb-21 19:33N 53°45' W 006°09'  
2017-Feb-18 15:32N 53°43' W 006°11'  
Track history (hours):
 
Tides and Currents Weather Stations Pressure Air Temp Water Temp Dewpoint Dewpoint Depression Visibility Wind Speed Wind Dir Waves Ship Positions

Marten

Last reported at 2017-Feb-23 04:28 UTC. Time now 2017-Feb-27 00:00 UTC.
Position N 53°44' W 005°58'.

Length 90 m; draft 5.6 m.

Type: Ship. MMSI: 212376000.

Date/timePositionNaut miles runAvg speedWind from/ knotsBaromVisibWave heightAir tempDewpointWater temp
2017-Feb-23 04:28N 53°44' W 005°58'9 7.0
2017-Feb-23 03:12N 53°52' W 005°54'5 7.5
2017-Feb-23 02:31N 53°57' W 005°50'7 7.6
2017-Feb-23 01:33N 54°03' W 005°43'8 7.8
2017-Feb-23 00:33N 54°09' W 005°36'8 7.9
2017-Feb-22 23:33N 54°16' W 005°29'8 7.7
2017-Feb-22 22:33N 54°23' W 005°23'8 7.7
2017-Feb-22 21:33N 54°31' W 005°23'8 7.9
2017-Feb-22 20:33N 54°38' W 005°26'7 7.0
2017-Feb-22 19:33N 54°43' W 005°35'8 8.0
2017-Feb-22 18:33N 54°41' W 005°49'5 0.3
2017-Feb-22 03:30N 54°37' W 005°53'6 6.4
2017-Feb-22 02:33N 54°42' W 005°47'1110.6
2017-Feb-22 01:34N 54°43' W 005°28'1111.3
2017-Feb-22 00:33N 54°32' W 005°22'1111.3
2017-Feb-21 23:33N 54°21' W 005°20'1111.5
2017-Feb-21 22:33N 54°11' W 005°32'1211.4
2017-Feb-21 21:32N 54°02' W 005°44'1211.4
2017-Feb-21 20:30N 53°53' W 005°57'1111.5
2017-Feb-21 19:33N 53°45' W 006°09'  
2017-Feb-18 15:32N 53°43' W 006°11'  

Dump ship's entire track history